sensor_id;sensor_type;location;lat;lon;timestamp;P1;durP1;ratioP1;P2;durP2;ratioP2
57593;SDS011;43423;46.510;6.686;2022-11-20T00:00:54;7.20;;;1.98;;
57593;SDS011;43423;46.510;6.686;2022-11-20T00:03:20;3.35;;;1.42;;
57593;SDS011;43423;46.510;6.686;2022-11-20T00:05:46;6.15;;;1.30;;
57593;SDS011;43423;46.510;6.686;2022-11-20T00:08:12;2.58;;;1.27;;
57593;SDS011;43423;46.510;6.686;2022-11-20T00:10:38;2.33;;;1.15;;
57593;SDS011;43423;46.510;6.686;2022-11-20T00:13:05;2.05;;;1.38;;
57593;SDS011;43423;46.510;6.686;2022-11-20T00:15:30;2.50;;;1.30;;
57593;SDS011;43423;46.510;6.686;2022-11-20T00:17:56;1.52;;;1.00;;
57593;SDS011;43423;46.510;6.686;2022-11-20T00:20:22;2.97;;;1.20;;
57593;SDS011;43423;46.510;6.686;2022-11-20T00:22:49;2.13;;;1.92;;
57593;SDS011;43423;46.510;6.686;2022-11-20T00:25:15;1.33;;;1.20;;
57593;SDS011;43423;46.510;6.686;2022-11-20T00:27:41;3.85;;;1.00;;
57593;SDS011;43423;46.510;6.686;2022-11-20T00:30:07;2.28;;;1.05;;
57593;SDS011;43423;46.510;6.686;2022-11-20T00:32:33;2.20;;;1.00;;
57593;SDS011;43423;46.510;6.686;2022-11-20T00:34:59;2.22;;;0.95;;
57593;SDS011;43423;46.510;6.686;2022-11-20T00:37:25;2.15;;;0.80;;
57593;SDS011;43423;46.510;6.686;2022-11-20T00:39:50;2.75;;;0.90;;
57593;SDS011;43423;46.510;6.686;2022-11-20T00:42:16;1.40;;;0.90;;
57593;SDS011;43423;46.510;6.686;2022-11-20T00:44:42;1.80;;;1.45;;
57593;SDS011;43423;46.510;6.686;2022-11-20T00:47:07;2.50;;;1.10;;
57593;SDS011;43423;46.510;6.686;2022-11-20T00:49:33;2.38;;;1.27;;
57593;SDS011;43423;46.510;6.686;2022-11-20T00:51:59;2.90;;;0.88;;
57593;SDS011;43423;46.510;6.686;2022-11-20T00:54:24;1.55;;;0.70;;
57593;SDS011;43423;46.510;6.686;2022-11-20T00:56:52;3.75;;;0.85;;
57593;SDS011;43423;46.510;6.686;2022-11-20T00:59:18;2.50;;;0.73;;
57593;SDS011;43423;46.510;6.686;2022-11-20T01:01:44;1.00;;;0.68;;
57593;SDS011;43423;46.510;6.686;2022-11-20T01:04:12;0.73;;;0.70;;
57593;SDS011;43423;46.510;6.686;2022-11-20T01:06:38;2.42;;;0.70;;
57593;SDS011;43423;46.510;6.686;2022-11-20T01:09:09;2.85;;;0.68;;
57593;SDS011;43423;46.510;6.686;2022-11-20T01:11:38;2.80;;;0.60;;
57593;SDS011;43423;46.510;6.686;2022-11-20T01:14:07;0.90;;;0.75;;
57593;SDS011;43423;46.510;6.686;2022-11-20T01:16:36;1.67;;;0.80;;
57593;SDS011;43423;46.510;6.686;2022-11-20T01:19:05;0.95;;;0.65;;
57593;SDS011;43423;46.510;6.686;2022-11-20T01:21:34;2.20;;;0.70;;
57593;SDS011;43423;46.510;6.686;2022-11-20T01:24:02;1.13;;;0.70;;
57593;SDS011;43423;46.510;6.686;2022-11-20T01:26:30;2.17;;;0.73;;
57593;SDS011;43423;46.510;6.686;2022-11-20T01:28:57;3.58;;;0.57;;
57593;SDS011;43423;46.510;6.686;2022-11-20T01:31:24;2.10;;;1.10;;
57593;SDS011;43423;46.510;6.686;2022-11-20T01:33:53;1.67;;;0.80;;
57593;SDS011;43423;46.510;6.686;2022-11-20T01:36:23;0.95;;;0.63;;
57593;SDS011;43423;46.510;6.686;2022-11-20T01:38:54;0.73;;;0.68;;
57593;SDS011;43423;46.510;6.686;2022-11-20T01:41:21;2.60;;;0.70;;
57593;SDS011;43423;46.510;6.686;2022-11-20T01:44:06;0.90;;;0.60;;
57593;SDS011;43423;46.510;6.686;2022-11-20T01:46:33;0.70;;;0.40;;
57593;SDS011;43423;46.510;6.686;2022-11-20T01:49:11;0.98;;;0.70;;
57593;SDS011;43423;46.510;6.686;2022-11-20T01:55:00;0.70;;;0.65;;
57593;SDS011;43423;46.510;6.686;2022-11-20T01:57:31;1.27;;;0.73;;
57593;SDS011;43423;46.510;6.686;2022-11-20T02:00:06;1.00;;;0.70;;
57593;SDS011;43423;46.510;6.686;2022-11-20T02:02:35;1.75;;;0.60;;
57593;SDS011;43423;46.510;6.686;2022-11-20T02:08:05;2.13;;;0.70;;
57593;SDS011;43423;46.510;6.686;2022-11-20T02:10:32;5.30;;;0.93;;
57593;SDS011;43423;46.510;6.686;2022-11-20T02:12:58;1.17;;;0.50;;
57593;SDS011;43423;46.510;6.686;2022-11-20T02:15:42;2.55;;;0.68;;
57593;SDS011;43423;46.510;6.686;2022-11-20T02:18:09;5.40;;;0.73;;
57593;SDS011;43423;46.510;6.686;2022-11-20T02:20:36;0.55;;;0.55;;
57593;SDS011;43423;46.510;6.686;2022-11-20T02:25:37;1.05;;;0.63;;
57593;SDS011;43423;46.510;6.686;2022-11-20T02:28:04;7.15;;;0.90;;
57593;SDS011;43423;46.510;6.686;2022-11-20T02:30:30;2.05;;;0.80;;
57593;SDS011;43423;46.510;6.686;2022-11-20T02:32:57;2.05;;;0.75;;
57593;SDS011;43423;46.510;6.686;2022-11-20T02:37:49;2.38;;;0.80;;
57593;SDS011;43423;46.510;6.686;2022-11-20T02:40:18;1.38;;;0.73;;
57593;SDS011;43423;46.510;6.686;2022-11-20T02:42:44;2.15;;;0.82;;
57593;SDS011;43423;46.510;6.686;2022-11-20T02:45:10;1.58;;;0.90;;
57593;SDS011;43423;46.510;6.686;2022-11-20T02:47:36;1.30;;;0.80;;
57593;SDS011;43423;46.510;6.686;2022-11-20T02:50:02;1.15;;;0.80;;
57593;SDS011;43423;46.510;6.686;2022-11-20T02:52:29;4.20;;;1.08;;
57593;SDS011;43423;46.510;6.686;2022-11-20T02:54:55;3.20;;;0.70;;
57593;SDS011;43423;46.510;6.686;2022-11-20T02:57:20;1.38;;;0.85;;
57593;SDS011;43423;46.510;6.686;2022-11-20T02:59:46;1.65;;;0.80;;
57593;SDS011;43423;46.510;6.686;2022-11-20T03:02:12;1.98;;;0.73;;
57593;SDS011;43423;46.510;6.686;2022-11-20T03:04:37;1.52;;;0.75;;
57593;SDS011;43423;46.510;6.686;2022-11-20T03:07:03;1.40;;;0.57;;
57593;SDS011;43423;46.510;6.686;2022-11-20T03:09:29;1.08;;;0.68;;
57593;SDS011;43423;46.510;6.686;2022-11-20T03:11:55;0.80;;;0.80;;
57593;SDS011;43423;46.510;6.686;2022-11-20T03:14:20;2.92;;;0.65;;
57593;SDS011;43423;46.510;6.686;2022-11-20T03:16:46;0.98;;;0.95;;
57593;SDS011;43423;46.510;6.686;2022-11-20T03:19:11;0.93;;;0.70;;
57593;SDS011;43423;46.510;6.686;2022-11-20T03:21:38;1.42;;;0.75;;
57593;SDS011;43423;46.510;6.686;2022-11-20T03:24:03;2.05;;;0.70;;
57593;SDS011;43423;46.510;6.686;2022-11-20T03:26:29;0.50;;;0.50;;
57593;SDS011;43423;46.510;6.686;2022-11-20T03:28:56;1.33;;;1.17;;
57593;SDS011;43423;46.510;6.686;2022-11-20T03:31:28;2.00;;;0.80;;
57593;SDS011;43423;46.510;6.686;2022-11-20T03:33:58;1.58;;;0.63;;
57593;SDS011;43423;46.510;6.686;2022-11-20T03:36:24;1.05;;;0.80;;
57593;SDS011;43423;46.510;6.686;2022-11-20T03:38:52;0.75;;;0.60;;
57593;SDS011;43423;46.510;6.686;2022-11-20T03:41:23;0.63;;;0.60;;
57593;SDS011;43423;46.510;6.686;2022-11-20T03:43:53;2.33;;;0.80;;
57593;SDS011;43423;46.510;6.686;2022-11-20T03:46:23;1.88;;;0.88;;
57593;SDS011;43423;46.510;6.686;2022-11-20T03:48:49;0.63;;;0.60;;
57593;SDS011;43423;46.510;6.686;2022-11-20T03:51:16;1.45;;;1.10;;
57593;SDS011;43423;46.510;6.686;2022-11-20T03:53:44;1.02;;;0.73;;
57593;SDS011;43423;46.510;6.686;2022-11-20T03:56:11;4.35;;;0.90;;
57593;SDS011;43423;46.510;6.686;2022-11-20T03:58:38;0.90;;;0.73;;
57593;SDS011;43423;46.510;6.686;2022-11-20T04:01:12;1.33;;;1.02;;
57593;SDS011;43423;46.510;6.686;2022-11-20T04:03:40;1.17;;;1.00;;
57593;SDS011;43423;46.510;6.686;2022-11-20T04:06:08;4.45;;;1.05;;
57593;SDS011;43423;46.510;6.686;2022-11-20T04:08:36;3.70;;;1.45;;
57593;SDS011;43423;46.510;6.686;2022-11-20T04:11:35;4.18;;;1.20;;
57593;SDS011;43423;46.510;6.686;2022-11-20T04:13:55;1.15;;;1.05;;
57593;SDS011;43423;46.510;6.686;2022-11-20T04:16:23;2.88;;;1.38;;
57593;SDS011;43423;46.510;6.686;2022-11-20T04:18:53;2.30;;;1.30;;
57593;SDS011;43423;46.510;6.686;2022-11-20T04:21:20;2.35;;;1.38;;
57593;SDS011;43423;46.510;6.686;2022-11-20T04:23:45;2.75;;;1.30;;
57593;SDS011;43423;46.510;6.686;2022-11-20T04:26:11;7.55;;;2.13;;
57593;SDS011;43423;46.510;6.686;2022-11-20T04:28:37;7.60;;;1.42;;
57593;SDS011;43423;46.510;6.686;2022-11-20T04:31:09;3.67;;;1.40;;
57593;SDS011;43423;46.510;6.686;2022-11-20T04:33:36;3.13;;;1.45;;
57593;SDS011;43423;46.510;6.686;2022-11-20T04:36:06;5.00;;;2.20;;
57593;SDS011;43423;46.510;6.686;2022-11-20T04:38:37;3.80;;;1.60;;
57593;SDS011;43423;46.510;6.686;2022-11-20T04:41:03;7.45;;;2.15;;
57593;SDS011;43423;46.510;6.686;2022-11-20T04:43:30;4.32;;;1.65;;
57593;SDS011;43423;46.510;6.686;2022-11-20T04:45:57;4.63;;;1.60;;
57593;SDS011;43423;46.510;6.686;2022-11-20T04:48:23;3.00;;;1.38;;
57593;SDS011;43423;46.510;6.686;2022-11-20T04:50:51;2.97;;;1.60;;
57593;SDS011;43423;46.510;6.686;2022-11-20T04:53:17;2.13;;;1.60;;
57593;SDS011;43423;46.510;6.686;2022-11-20T04:55:43;2.67;;;1.60;;
57593;SDS011;43423;46.510;6.686;2022-11-20T04:58:10;4.43;;;1.80;;
57593;SDS011;43423;46.510;6.686;2022-11-20T05:00:36;2.13;;;1.25;;
57593;SDS011;43423;46.510;6.686;2022-11-20T05:03:02;4.20;;;1.73;;
57593;SDS011;43423;46.510;6.686;2022-11-20T05:05:28;3.53;;;1.80;;
57593;SDS011;43423;46.510;6.686;2022-11-20T05:07:55;3.45;;;1.73;;
57593;SDS011;43423;46.510;6.686;2022-11-20T05:10:22;2.67;;;1.75;;
57593;SDS011;43423;46.510;6.686;2022-11-20T05:12:48;6.18;;;1.85;;
57593;SDS011;43423;46.510;6.686;2022-11-20T05:15:14;3.22;;;1.90;;
57593;SDS011;43423;46.510;6.686;2022-11-20T05:17:39;5.80;;;1.90;;
57593;SDS011;43423;46.510;6.686;2022-11-20T05:20:05;6.90;;;2.00;;
57593;SDS011;43423;46.510;6.686;2022-11-20T05:22:31;2.85;;;1.80;;
57593;SDS011;43423;46.510;6.686;2022-11-20T05:24:57;7.93;;;1.73;;
57593;SDS011;43423;46.510;6.686;2022-11-20T05:27:23;6.32;;;1.70;;
57593;SDS011;43423;46.510;6.686;2022-11-20T05:29:49;4.25;;;1.70;;
57593;SDS011;43423;46.510;6.686;2022-11-20T05:32:14;2.65;;;1.70;;
57593;SDS011;43423;46.510;6.686;2022-11-20T05:34:40;5.32;;;1.90;;
57593;SDS011;43423;46.510;6.686;2022-11-20T05:37:05;3.22;;;1.73;;
57593;SDS011;43423;46.510;6.686;2022-11-20T05:39:31;4.05;;;1.85;;
57593;SDS011;43423;46.510;6.686;2022-11-20T05:41:56;5.57;;;2.10;;
57593;SDS011;43423;46.510;6.686;2022-11-20T05:44:41;2.58;;;1.67;;
57593;SDS011;43423;46.510;6.686;2022-11-20T05:47:06;6.90;;;2.53;;
57593;SDS011;43423;46.510;6.686;2022-11-20T05:49:32;4.78;;;2.00;;
57593;SDS011;43423;46.510;6.686;2022-11-20T05:51:58;2.60;;;2.10;;
57593;SDS011;43423;46.510;6.686;2022-11-20T05:54:23;3.70;;;1.83;;
57593;SDS011;43423;46.510;6.686;2022-11-20T05:56:49;2.58;;;1.85;;
57593;SDS011;43423;46.510;6.686;2022-11-20T05:59:15;2.63;;;1.63;;
57593;SDS011;43423;46.510;6.686;2022-11-20T06:01:40;5.15;;;1.80;;
57593;SDS011;43423;46.510;6.686;2022-11-20T06:04:06;3.95;;;2.20;;
57593;SDS011;43423;46.510;6.686;2022-11-20T06:06:32;4.90;;;2.13;;
57593;SDS011;43423;46.510;6.686;2022-11-20T06:08:57;5.10;;;2.10;;
57593;SDS011;43423;46.510;6.686;2022-11-20T06:11:24;6.13;;;2.22;;
57593;SDS011;43423;46.510;6.686;2022-11-20T06:13:50;3.85;;;1.90;;
57593;SDS011;43423;46.510;6.686;2022-11-20T06:16:16;3.10;;;1.83;;
57593;SDS011;43423;46.510;6.686;2022-11-20T06:18:44;3.90;;;2.40;;
57593;SDS011;43423;46.510;6.686;2022-11-20T06:21:14;2.28;;;2.05;;
57593;SDS011;43423;46.510;6.686;2022-11-20T06:23:42;3.05;;;2.33;;
57593;SDS011;43423;46.510;6.686;2022-11-20T06:26:09;3.03;;;2.00;;
57593;SDS011;43423;46.510;6.686;2022-11-20T06:28:36;7.13;;;2.17;;
57593;SDS011;43423;46.510;6.686;2022-11-20T06:31:02;9.48;;;2.50;;
57593;SDS011;43423;46.510;6.686;2022-11-20T06:33:29;4.50;;;2.28;;
57593;SDS011;43423;46.510;6.686;2022-11-20T06:35:57;6.03;;;2.88;;
57593;SDS011;43423;46.510;6.686;2022-11-20T06:38:25;4.97;;;2.95;;
57593;SDS011;43423;46.510;6.686;2022-11-20T06:40:51;5.70;;;2.55;;
57593;SDS011;43423;46.510;6.686;2022-11-20T06:43:17;7.03;;;2.72;;
57593;SDS011;43423;46.510;6.686;2022-11-20T06:45:42;3.42;;;2.20;;
57593;SDS011;43423;46.510;6.686;2022-11-20T06:48:08;4.32;;;2.75;;
57593;SDS011;43423;46.510;6.686;2022-11-20T06:50:35;6.25;;;2.80;;
57593;SDS011;43423;46.510;6.686;2022-11-20T06:53:03;3.25;;;2.38;;
57593;SDS011;43423;46.510;6.686;2022-11-20T06:55:30;5.70;;;2.78;;
57593;SDS011;43423;46.510;6.686;2022-11-20T06:57:56;6.28;;;3.90;;
57593;SDS011;43423;46.510;6.686;2022-11-20T07:00:22;8.82;;;3.30;;
57593;SDS011;43423;46.510;6.686;2022-11-20T07:02:48;5.25;;;3.20;;
57593;SDS011;43423;46.510;6.686;2022-11-20T07:05:13;8.13;;;3.92;;
57593;SDS011;43423;46.510;6.686;2022-11-20T07:07:39;10.07;;;4.07;;
57593;SDS011;43423;46.510;6.686;2022-11-20T07:10:05;7.65;;;3.42;;
57593;SDS011;43423;46.510;6.686;2022-11-20T07:12:31;7.03;;;3.78;;
57593;SDS011;43423;46.510;6.686;2022-11-20T07:14:56;5.25;;;1.98;;
57593;SDS011;43423;46.510;6.686;2022-11-20T07:17:22;6.72;;;2.20;;
57593;SDS011;43423;46.510;6.686;2022-11-20T07:19:48;3.75;;;2.17;;
57593;SDS011;43423;46.510;6.686;2022-11-20T07:22:13;3.42;;;2.00;;
57593;SDS011;43423;46.510;6.686;2022-11-20T07:24:39;4.40;;;1.98;;
57593;SDS011;43423;46.510;6.686;2022-11-20T07:27:05;3.28;;;1.58;;
57593;SDS011;43423;46.510;6.686;2022-11-20T07:29:30;2.70;;;1.60;;
57593;SDS011;43423;46.510;6.686;2022-11-20T07:31:56;3.85;;;1.38;;
57593;SDS011;43423;46.510;6.686;2022-11-20T07:34:22;2.42;;;1.77;;
57593;SDS011;43423;46.510;6.686;2022-11-20T07:36:48;2.83;;;1.80;;
57593;SDS011;43423;46.510;6.686;2022-11-20T07:39:13;6.68;;;2.67;;
57593;SDS011;43423;46.510;6.686;2022-11-20T07:41:39;5.00;;;1.52;;
57593;SDS011;43423;46.510;6.686;2022-11-20T07:44:04;3.33;;;1.60;;
57593;SDS011;43423;46.510;6.686;2022-11-20T07:46:30;4.72;;;1.83;;
57593;SDS011;43423;46.510;6.686;2022-11-20T07:48:56;2.97;;;1.60;;
57593;SDS011;43423;46.510;6.686;2022-11-20T07:51:22;3.22;;;1.65;;
57593;SDS011;43423;46.510;6.686;2022-11-20T07:53:50;2.97;;;1.85;;
57593;SDS011;43423;46.510;6.686;2022-11-20T07:56:16;5.45;;;1.88;;
57593;SDS011;43423;46.510;6.686;2022-11-20T07:58:42;7.60;;;2.42;;
57593;SDS011;43423;46.510;6.686;2022-11-20T08:01:08;6.18;;;1.92;;
57593;SDS011;43423;46.510;6.686;2022-11-20T08:03:33;3.05;;;1.88;;
57593;SDS011;43423;46.510;6.686;2022-11-20T08:06:02;5.40;;;2.20;;
57593;SDS011;43423;46.510;6.686;2022-11-20T08:08:28;4.38;;;2.28;;
57593;SDS011;43423;46.510;6.686;2022-11-20T08:10:58;3.58;;;2.30;;
57593;SDS011;43423;46.510;6.686;2022-11-20T08:13:42;5.22;;;2.47;;
57593;SDS011;43423;46.510;6.686;2022-11-20T08:16:27;6.22;;;2.30;;
57593;SDS011;43423;46.510;6.686;2022-11-20T08:18:53;6.43;;;2.40;;
57593;SDS011;43423;46.510;6.686;2022-11-20T08:21:19;4.90;;;1.48;;
57593;SDS011;43423;46.510;6.686;2022-11-20T08:23:44;3.63;;;1.77;;
57593;SDS011;43423;46.510;6.686;2022-11-20T08:26:10;2.67;;;1.70;;
57593;SDS011;43423;46.510;6.686;2022-11-20T08:28:36;4.18;;;1.70;;
57593;SDS011;43423;46.510;6.686;2022-11-20T08:31:02;4.38;;;1.73;;
57593;SDS011;43423;46.510;6.686;2022-11-20T08:33:28;7.47;;;3.40;;
57593;SDS011;43423;46.510;6.686;2022-11-20T08:35:59;4.53;;;2.25;;
57593;SDS011;43423;46.510;6.686;2022-11-20T08:38:26;3.88;;;2.00;;
57593;SDS011;43423;46.510;6.686;2022-11-20T08:40:51;4.18;;;1.58;;
57593;SDS011;43423;46.510;6.686;2022-11-20T08:43:36;2.90;;;1.83;;
57593;SDS011;43423;46.510;6.686;2022-11-20T08:46:01;3.72;;;2.17;;
57593;SDS011;43423;46.510;6.686;2022-11-20T08:48:27;3.88;;;2.17;;
57593;SDS011;43423;46.510;6.686;2022-11-20T08:50:52;3.67;;;1.90;;
57593;SDS011;43423;46.510;6.686;2022-11-20T08:53:18;4.88;;;1.63;;
57593;SDS011;43423;46.510;6.686;2022-11-20T08:55:44;5.75;;;1.70;;
57593;SDS011;43423;46.510;6.686;2022-11-20T08:58:09;5.05;;;1.98;;
57593;SDS011;43423;46.510;6.686;2022-11-20T09:00:35;5.45;;;1.60;;
57593;SDS011;43423;46.510;6.686;2022-11-20T09:03:01;2.28;;;1.35;;
57593;SDS011;43423;46.510;6.686;2022-11-20T09:05:27;3.17;;;1.77;;
57593;SDS011;43423;46.510;6.686;2022-11-20T09:07:55;3.65;;;1.92;;
57593;SDS011;43423;46.510;6.686;2022-11-20T09:10:22;3.38;;;1.73;;
57593;SDS011;43423;46.510;6.686;2022-11-20T09:12:51;4.57;;;2.47;;
57593;SDS011;43423;46.510;6.686;2022-11-20T09:15:18;3.67;;;2.03;;
57593;SDS011;43423;46.510;6.686;2022-11-20T09:17:53;4.88;;;2.08;;
57593;SDS011;43423;46.510;6.686;2022-11-20T09:20:19;4.20;;;2.28;;
57593;SDS011;43423;46.510;6.686;2022-11-20T09:22:45;3.55;;;2.20;;
57593;SDS011;43423;46.510;6.686;2022-11-20T09:25:11;5.85;;;2.50;;
57593;SDS011;43423;46.510;6.686;2022-11-20T09:27:37;6.45;;;2.45;;
57593;SDS011;43423;46.510;6.686;2022-11-20T09:30:03;5.13;;;2.38;;
57593;SDS011;43423;46.510;6.686;2022-11-20T09:32:29;6.88;;;2.50;;
57593;SDS011;43423;46.510;6.686;2022-11-20T09:34:55;4.75;;;2.15;;
57593;SDS011;43423;46.510;6.686;2022-11-20T09:37:20;3.83;;;2.60;;
57593;SDS011;43423;46.510;6.686;2022-11-20T09:39:46;3.53;;;2.15;;
57593;SDS011;43423;46.510;6.686;2022-11-20T09:47:43;4.32;;;1.85;;
57593;SDS011;43423;46.510;6.686;2022-11-20T09:52:45;3.88;;;1.38;;
57593;SDS011;43423;46.510;6.686;2022-11-20T09:55:13;4.55;;;1.45;;
57593;SDS011;43423;46.510;6.686;2022-11-20T09:57:41;5.40;;;1.90;;
57593;SDS011;43423;46.510;6.686;2022-11-20T10:00:11;2.47;;;1.10;;
57593;SDS011;43423;46.510;6.686;2022-11-20T10:02:47;1.60;;;1.50;;
57593;SDS011;43423;46.510;6.686;2022-11-20T10:05:19;2.03;;;1.40;;
57593;SDS011;43423;46.510;6.686;2022-11-20T10:10:47;2.75;;;1.40;;
57593;SDS011;43423;46.510;6.686;2022-11-20T10:19:09;3.95;;;1.98;;
57593;SDS011;43423;46.510;6.686;2022-11-20T10:21:41;1.65;;;1.13;;
57593;SDS011;43423;46.510;6.686;2022-11-20T10:24:23;2.78;;;1.27;;
57593;SDS011;43423;46.510;6.686;2022-11-20T10:29:34;2.08;;;1.25;;
57593;SDS011;43423;46.510;6.686;2022-11-20T10:32:24;2.53;;;1.35;;
57593;SDS011;43423;46.510;6.686;2022-11-20T10:35:00;2.50;;;0.98;;
57593;SDS011;43423;46.510;6.686;2022-11-20T10:37:30;0.80;;;0.80;;
57593;SDS011;43423;46.510;6.686;2022-11-20T10:42:44;4.35;;;1.38;;
57593;SDS011;43423;46.510;6.686;2022-11-20T10:45:40;1.50;;;0.90;;
57593;SDS011;43423;46.510;6.686;2022-11-20T10:48:15;0.75;;;0.75;;
57593;SDS011;43423;46.510;6.686;2022-11-20T10:50:54;1.98;;;1.00;;
57593;SDS011;43423;46.510;6.686;2022-11-20T10:53:33;3.83;;;1.30;;
57593;SDS011;43423;46.510;6.686;2022-11-20T11:01:41;0.80;;;0.80;;
57593;SDS011;43423;46.510;6.686;2022-11-20T11:04:26;2.08;;;1.67;;
57593;SDS011;43423;46.510;6.686;2022-11-20T11:06:54;2.38;;;0.98;;
57593;SDS011;43423;46.510;6.686;2022-11-20T11:09:34;2.08;;;1.17;;
57593;SDS011;43423;46.510;6.686;2022-11-20T11:12:08;4.10;;;1.20;;
57593;SDS011;43423;46.510;6.686;2022-11-20T11:14:41;3.30;;;1.50;;
57593;SDS011;43423;46.510;6.686;2022-11-20T11:17:17;2.45;;;1.30;;
57593;SDS011;43423;46.510;6.686;2022-11-20T11:19:45;1.25;;;1.00;;
57593;SDS011;43423;46.510;6.686;2022-11-20T11:22:25;1.30;;;1.20;;
57593;SDS011;43423;46.510;6.686;2022-11-20T11:24:53;1.20;;;1.10;;
57593;SDS011;43423;46.510;6.686;2022-11-20T11:27:18;1.85;;;1.33;;
57593;SDS011;43423;46.510;6.686;2022-11-20T11:29:45;2.08;;;1.10;;
57593;SDS011;43423;46.510;6.686;2022-11-20T11:32:12;1.10;;;0.80;;
57593;SDS011;43423;46.510;6.686;2022-11-20T11:34:38;1.38;;;0.80;;
57593;SDS011;43423;46.510;6.686;2022-11-20T11:37:03;0.93;;;0.90;;
57593;SDS011;43423;46.510;6.686;2022-11-20T11:39:35;1.17;;;0.60;;
57593;SDS011;43423;46.510;6.686;2022-11-20T11:42:05;2.53;;;1.15;;
57593;SDS011;43423;46.510;6.686;2022-11-20T11:44:38;1.65;;;1.25;;
57593;SDS011;43423;46.510;6.686;2022-11-20T11:55:07;1.50;;;1.10;;
57593;SDS011;43423;46.510;6.686;2022-11-20T11:57:44;1.75;;;0.98;;
57593;SDS011;43423;46.510;6.686;2022-11-20T12:00:16;1.10;;;0.80;;
57593;SDS011;43423;46.510;6.686;2022-11-20T12:07:46;1.40;;;0.75;;
57593;SDS011;43423;46.510;6.686;2022-11-20T12:10:23;2.55;;;0.90;;
57593;SDS011;43423;46.510;6.686;2022-11-20T12:15:54;2.80;;;0.80;;
57593;SDS011;43423;46.510;6.686;2022-11-20T12:18:21;0.60;;;0.60;;
57593;SDS011;43423;46.510;6.686;2022-11-20T12:29:32;1.75;;;0.82;;
57593;SDS011;43423;46.510;6.686;2022-11-20T12:34:51;1.25;;;1.10;;
57593;SDS011;43423;46.510;6.686;2022-11-20T12:37:30;1.00;;;0.90;;
57593;SDS011;43423;46.510;6.686;2022-11-20T12:46:46;0.70;;;0.70;;
57593;SDS011;43423;46.510;6.686;2022-11-20T12:51:48;1.33;;;0.70;;
57593;SDS011;43423;46.510;6.686;2022-11-20T12:54:28;1.35;;;1.00;;
57593;SDS011;43423;46.510;6.686;2022-11-20T12:57:14;0.80;;;0.60;;
57593;SDS011;43423;46.510;6.686;2022-11-20T13:02:25;1.33;;;1.00;;
57593;SDS011;43423;46.510;6.686;2022-11-20T13:07:38;2.95;;;0.80;;
57593;SDS011;43423;46.510;6.686;2022-11-20T13:10:06;1.50;;;0.93;;
57593;SDS011;43423;46.510;6.686;2022-11-20T13:12:47;1.10;;;1.00;;
57593;SDS011;43423;46.510;6.686;2022-11-20T13:18:11;1.35;;;1.00;;
57593;SDS011;43423;46.510;6.686;2022-11-20T13:20:41;1.90;;;0.85;;
57593;SDS011;43423;46.510;6.686;2022-11-20T13:23:08;3.10;;;1.05;;
57593;SDS011;43423;46.510;6.686;2022-11-20T13:25:35;1.10;;;1.00;;
57593;SDS011;43423;46.510;6.686;2022-11-20T13:28:25;3.53;;;0.93;;
57593;SDS011;43423;46.510;6.686;2022-11-20T13:30:55;3.00;;;0.93;;
57593;SDS011;43423;46.510;6.686;2022-11-20T13:36:02;0.80;;;0.60;;
57593;SDS011;43423;46.510;6.686;2022-11-20T13:38:40;1.67;;;0.82;;
57593;SDS011;43423;46.510;6.686;2022-11-20T13:41:10;1.65;;;1.50;;
57593;SDS011;43423;46.510;6.686;2022-11-20T13:43:54;2.17;;;1.48;;
57593;SDS011;43423;46.510;6.686;2022-11-20T13:46:34;0.70;;;0.70;;
57593;SDS011;43423;46.510;6.686;2022-11-20T13:49:05;1.05;;;1.00;;
57593;SDS011;43423;46.510;6.686;2022-11-20T13:54:17;2.55;;;1.00;;
57593;SDS011;43423;46.510;6.686;2022-11-20T13:57:14;1.60;;;1.17;;
57593;SDS011;43423;46.510;6.686;2022-11-20T14:00:11;1.73;;;1.10;;
57593;SDS011;43423;46.510;6.686;2022-11-20T14:02:37;2.65;;;1.10;;
57593;SDS011;43423;46.510;6.686;2022-11-20T14:05:02;1.95;;;0.77;;
57593;SDS011;43423;46.510;6.686;2022-11-20T14:07:37;1.77;;;1.15;;
57593;SDS011;43423;46.510;6.686;2022-11-20T14:10:18;1.13;;;0.80;;
57593;SDS011;43423;46.510;6.686;2022-11-20T14:12:45;1.25;;;1.15;;
57593;SDS011;43423;46.510;6.686;2022-11-20T14:18:13;1.13;;;0.90;;
57593;SDS011;43423;46.510;6.686;2022-11-20T14:20:48;1.55;;;0.77;;
57593;SDS011;43423;46.510;6.686;2022-11-20T14:23:22;2.35;;;0.77;;
57593;SDS011;43423;46.510;6.686;2022-11-20T14:25:52;2.75;;;0.82;;
57593;SDS011;43423;46.510;6.686;2022-11-20T14:28:20;1.27;;;0.55;;
57593;SDS011;43423;46.510;6.686;2022-11-20T14:30:51;2.53;;;0.75;;
57593;SDS011;43423;46.510;6.686;2022-11-20T14:33:17;2.05;;;0.90;;
57593;SDS011;43423;46.510;6.686;2022-11-20T14:35:48;1.88;;;0.93;;
57593;SDS011;43423;46.510;6.686;2022-11-20T14:40:43;1.58;;;1.20;;
57593;SDS011;43423;46.510;6.686;2022-11-20T14:43:23;2.88;;;0.88;;
57593;SDS011;43423;46.510;6.686;2022-11-20T14:45:59;0.80;;;0.80;;
57593;SDS011;43423;46.510;6.686;2022-11-20T14:54:12;1.95;;;1.00;;
57593;SDS011;43423;46.510;6.686;2022-11-20T14:56:41;1.63;;;1.00;;
57593;SDS011;43423;46.510;6.686;2022-11-20T14:59:07;2.40;;;1.10;;
57593;SDS011;43423;46.510;6.686;2022-11-20T15:01:34;2.10;;;1.00;;
57593;SDS011;43423;46.510;6.686;2022-11-20T15:04:07;1.90;;;1.20;;
57593;SDS011;43423;46.510;6.686;2022-11-20T15:06:36;2.33;;;1.50;;
57593;SDS011;43423;46.510;6.686;2022-11-20T15:09:03;2.20;;;1.45;;
57593;SDS011;43423;46.510;6.686;2022-11-20T15:11:31;1.33;;;1.20;;
57593;SDS011;43423;46.510;6.686;2022-11-20T15:14:02;0.98;;;0.98;;
57593;SDS011;43423;46.510;6.686;2022-11-20T15:16:30;1.27;;;1.17;;
57593;SDS011;43423;46.510;6.686;2022-11-20T15:18:56;2.58;;;1.50;;
57593;SDS011;43423;46.510;6.686;2022-11-20T15:21:21;2.67;;;1.20;;
57593;SDS011;43423;46.510;6.686;2022-11-20T15:23:48;2.10;;;1.20;;
57593;SDS011;43423;46.510;6.686;2022-11-20T15:26:15;1.55;;;1.20;;
57593;SDS011;43423;46.510;6.686;2022-11-20T15:28:48;2.10;;;1.35;;
57593;SDS011;43423;46.510;6.686;2022-11-20T15:31:16;1.33;;;1.10;;
57593;SDS011;43423;46.510;6.686;2022-11-20T15:33:43;1.30;;;1.00;;
57593;SDS011;43423;46.510;6.686;2022-11-20T15:36:11;1.58;;;0.82;;
57593;SDS011;43423;46.510;6.686;2022-11-20T15:38:37;1.70;;;1.17;;
57593;SDS011;43423;46.510;6.686;2022-11-20T15:41:03;3.08;;;0.95;;
57593;SDS011;43423;46.510;6.686;2022-11-20T15:43:29;3.95;;;0.95;;
57593;SDS011;43423;46.510;6.686;2022-11-20T15:45:56;2.80;;;1.15;;
57593;SDS011;43423;46.510;6.686;2022-11-20T15:48:27;3.15;;;0.93;;
57593;SDS011;43423;46.510;6.686;2022-11-20T15:54:08;2.40;;;0.90;;
57593;SDS011;43423;46.510;6.686;2022-11-20T15:56:36;1.50;;;0.98;;
57593;SDS011;43423;46.510;6.686;2022-11-20T15:59:03;1.20;;;0.93;;
57593;SDS011;43423;46.510;6.686;2022-11-20T16:01:28;1.25;;;1.08;;
57593;SDS011;43423;46.510;6.686;2022-11-20T16:03:54;1.65;;;1.00;;
57593;SDS011;43423;46.510;6.686;2022-11-20T16:06:19;1.30;;;1.20;;
57593;SDS011;43423;46.510;6.686;2022-11-20T16:08:45;1.77;;;1.10;;
57593;SDS011;43423;46.510;6.686;2022-11-20T16:11:15;4.93;;;1.48;;
57593;SDS011;43423;46.510;6.686;2022-11-20T16:16:29;5.72;;;1.92;;
57593;SDS011;43423;46.510;6.686;2022-11-20T16:18:58;1.48;;;1.30;;
57593;SDS011;43423;46.510;6.686;2022-11-20T16:21:23;2.80;;;1.80;;
57593;SDS011;43423;46.510;6.686;2022-11-20T16:23:56;3.53;;;1.65;;
57593;SDS011;43423;46.510;6.686;2022-11-20T16:26:23;2.08;;;1.27;;
57593;SDS011;43423;46.510;6.686;2022-11-20T16:28:58;3.35;;;1.92;;
57593;SDS011;43423;46.510;6.686;2022-11-20T16:31:42;1.98;;;1.50;;
57593;SDS011;43423;46.510;6.686;2022-11-20T16:34:07;3.50;;;1.73;;
57593;SDS011;43423;46.510;6.686;2022-11-20T16:36:33;3.58;;;1.60;;
57593;SDS011;43423;46.510;6.686;2022-11-20T16:39:00;3.67;;;1.40;;
57593;SDS011;43423;46.510;6.686;2022-11-20T16:41:30;3.90;;;1.83;;
57593;SDS011;43423;46.510;6.686;2022-11-20T16:43:58;2.55;;;1.65;;